createdAt,value
2022-07-25T00:02:39.021Z,12.90
2022-07-25T00:07:24.302Z,8.55
2022-07-25T00:12:11.262Z,15.02
2022-07-25T00:16:56.511Z,11.00
2022-07-25T00:21:44.474Z,12.18
2022-07-25T00:26:29.623Z,9.82
2022-07-25T00:31:15.114Z,9.90
2022-07-25T00:36:00.312Z,9.15
2022-07-25T00:40:54.482Z,9.75
2022-07-25T00:45:41.081Z,11.30
2022-07-25T00:50:26.585Z,10.90
2022-07-25T00:55:12.171Z,12.48
2022-07-25T01:00:00.341Z,9.05
2022-07-25T01:04:45.508Z,7.70
2022-07-25T01:09:30.965Z,7.70
2022-07-25T01:14:16.090Z,10.43
2022-07-25T01:19:04.084Z,14.57
2022-07-25T01:23:51.748Z,10.80
2022-07-25T01:28:37.216Z,12.13
2022-07-25T01:33:24.240Z,8.88
2022-07-25T01:38:09.778Z,13.00
2022-07-25T01:42:57.545Z,12.00
2022-07-25T01:47:43.033Z,11.35
2022-07-25T01:52:28.140Z,15.32
2022-07-25T01:57:13.836Z,17.40
2022-07-25T02:02:02.032Z,12.95
2022-07-25T02:06:47.476Z,12.35
2022-07-25T02:11:32.669Z,15.45
2022-07-25T02:16:18.088Z,15.95
2022-07-25T02:21:13.881Z,11.27
2022-07-25T02:26:00.135Z,12.30
2022-07-25T02:30:45.304Z,14.70
2022-07-25T02:35:30.840Z,15.63
2022-07-25T02:40:18.597Z,13.30
2022-07-25T02:45:03.925Z,11.60
2022-07-25T02:49:48.935Z,14.98
2022-07-25T02:54:34.460Z,14.50
2022-07-25T02:59:22.076Z,11.77
2022-07-25T03:04:08.272Z,15.15
2022-07-25T03:08:53.667Z,17.08
2022-07-25T03:13:39.734Z,12.88
2022-07-25T03:18:27.427Z,12.52
2022-07-25T03:23:12.840Z,12.93
2022-07-25T03:27:57.884Z,13.15
2022-07-25T03:32:44.058Z,11.45
2022-07-25T03:37:31.846Z,8.65
2022-07-25T03:42:17.170Z,8.95
2022-07-25T03:47:02.231Z,10.85
2022-07-25T03:51:47.673Z,9.25
2022-07-25T03:56:43.828Z,11.10
2022-07-25T04:01:30.760Z,9.65
2022-07-25T04:06:15.922Z,8.15
2022-07-25T04:11:01.279Z,13.60
2022-07-25T04:15:48.988Z,10.15
2022-07-25T04:20:34.360Z,9.80
2022-07-25T04:25:19.451Z,7.88
2022-07-25T04:30:04.833Z,9.30
2022-07-25T04:34:52.609Z,8.32
2022-07-25T04:39:37.991Z,9.05
2022-07-25T04:44:22.995Z,12.23
2022-07-25T04:49:08.538Z,14.20
2022-07-25T04:53:56.285Z,10.38
2022-07-25T04:58:41.598Z,10.70
2022-07-25T05:03:26.685Z,8.95
2022-07-25T05:08:12.106Z,9.77
2022-07-25T05:13:00.129Z,14.73
2022-07-25T05:17:45.936Z,7.38
2022-07-25T05:22:31.191Z,11.45
2022-07-25T05:27:16.627Z,9.93
2022-07-25T05:32:04.400Z,6.53
2022-07-25T05:36:49.836Z,8.30
2022-07-25T05:41:35.309Z,8.88
2022-07-25T05:46:20.731Z,11.35
2022-07-25T05:51:08.411Z,10.02
2022-07-25T05:55:53.863Z,12.48
2022-07-25T06:00:39.459Z,12.38
2022-07-25T06:05:25.059Z,10.32
2022-07-25T06:10:13.324Z,12.57
2022-07-25T06:14:58.696Z,10.95
2022-07-25T06:19:44.905Z,8.38
2022-07-25T06:24:30.266Z,8.63
2022-07-25T06:29:17.998Z,9.35
2022-07-25T06:34:03.949Z,6.78
2022-07-25T06:38:50.134Z,10.88
2022-07-25T06:43:35.559Z,10.13
2022-07-25T06:48:24.484Z,11.10
2022-07-25T06:53:09.898Z,8.23
2022-07-25T06:57:54.984Z,7.53
2022-07-25T07:02:51.895Z,11.95
2022-07-25T07:07:42.314Z,9.55
2022-07-25T07:12:29.811Z,9.43
2022-07-25T07:17:15.132Z,9.70
2022-07-25T07:22:00.597Z,5.95
2022-07-25T07:26:48.318Z,8.40
2022-07-25T07:31:33.698Z,8.48
2022-07-25T07:36:19.614Z,6.75
2022-07-25T07:41:05.245Z,10.88
2022-07-25T07:45:52.973Z,8.30
2022-07-25T07:50:38.718Z,5.25
2022-07-25T07:55:36.231Z,3.92
2022-07-25T08:00:21.993Z,4.80
2022-07-25T08:05:11.198Z,6.68
2022-07-25T08:09:56.976Z,4.07
2022-07-25T08:14:42.029Z,6.35
2022-07-25T08:19:27.413Z,7.25
2022-07-25T08:24:15.101Z,6.55
2022-07-25T08:29:18.092Z,7.28
2022-07-25T08:34:04.382Z,3.38
2022-07-25T08:38:49.878Z,8.60
2022-07-25T08:43:39.625Z,6.55
2022-07-25T08:48:26.375Z,6.13
2022-07-25T08:58:19.527Z,7.30
2022-07-25T09:03:08.484Z,7.45
2022-07-25T09:07:55.222Z,8.05
2022-07-25T09:12:41.417Z,7.85
2022-07-25T09:17:26.883Z,8.05
2022-07-25T09:22:16.143Z,8.25
2022-07-25T09:27:03.132Z,6.80
2022-07-25T09:31:48.364Z,7.80
2022-07-25T09:36:35.644Z,7.85
2022-07-25T09:41:23.483Z,8.77
2022-07-25T09:46:09.685Z,11.05
2022-07-25T09:50:57.557Z,9.65
2022-07-25T09:55:44.205Z,7.93
2022-07-25T10:00:34.260Z,16.88
2022-07-25T10:05:27.168Z,7.83
2022-07-25T10:10:22.483Z,8.55
2022-07-25T10:15:10.961Z,8.88
2022-07-25T10:20:00.821Z,11.15
2022-07-25T10:24:49.004Z,6.15
2022-07-25T10:29:37.151Z,6.72
2022-07-25T10:34:33.571Z,6.03
2022-07-25T10:39:23.056Z,6.13
2022-07-25T10:44:14.065Z,9.85
2022-07-25T10:49:04.311Z,8.75
2022-07-25T10:53:52.056Z,8.25
2022-07-25T10:58:51.873Z,8.55
2022-07-25T11:03:37.325Z,10.52
2022-07-25T11:08:32.964Z,7.53
2022-07-25T11:13:18.564Z,8.77
2022-07-25T11:18:06.771Z,8.85
2022-07-25T11:22:56.504Z,7.90
2022-07-25T11:27:41.583Z,8.10
2022-07-25T11:32:26.920Z,7.38
2022-07-25T11:37:15.922Z,10.20
2022-07-25T11:42:05.637Z,12.70
2022-07-25T11:46:50.752Z,12.80
2022-07-25T11:51:41.934Z,8.93
2022-07-25T11:56:42.580Z,13.77
2022-07-25T12:01:36.241Z,9.00
2022-07-25T12:06:21.304Z,8.10
2022-07-25T12:11:06.893Z,10.93
2022-07-25T12:15:54.749Z,5.70
2022-07-25T12:20:43.200Z,8.82
2022-07-25T12:25:31.184Z,6.28
2022-07-25T12:30:17.867Z,6.30
2022-07-25T12:35:10.585Z,3.92
2022-07-25T12:39:56.027Z,4.38
2022-07-25T12:44:41.173Z,4.47
2022-07-25T12:49:26.720Z,2.72
2022-07-25T12:54:21.584Z,2.65
2022-07-25T12:59:08.465Z,2.90
2022-07-25T13:03:53.743Z,1.58
2022-07-25T13:08:39.277Z,2.40
2022-07-25T13:13:27.006Z,3.40
2022-07-25T13:18:12.349Z,3.97
2022-07-25T13:22:57.388Z,4.15
2022-07-25T13:27:42.785Z,5.45
2022-07-25T13:32:31.956Z,5.10
2022-07-25T13:37:17.422Z,6.15
2022-07-25T13:42:02.688Z,3.58
2022-07-25T13:46:50.209Z,3.72
2022-07-25T13:51:37.884Z,6.53
2022-07-25T13:56:23.315Z,6.78
2022-07-25T14:01:08.477Z,7.07
2022-07-25T14:05:53.992Z,6.32
2022-07-25T14:10:42.037Z,7.55
2022-07-25T14:15:27.372Z,6.68
2022-07-25T14:20:13.938Z,5.07
2022-07-25T14:25:00.059Z,5.88
2022-07-25T14:29:47.827Z,5.28
2022-07-25T14:34:33.168Z,6.97
2022-07-25T14:39:18.570Z,5.07
2022-07-25T14:44:04.454Z,6.40
2022-07-25T14:48:54.260Z,8.77
2022-07-25T14:53:40.206Z,6.72
2022-07-25T14:58:25.310Z,9.18
2022-07-25T15:03:10.656Z,6.40
2022-07-25T15:07:58.434Z,10.30
2022-07-25T15:12:43.907Z,6.57
2022-07-25T15:17:28.983Z,7.45
2022-07-25T15:22:14.377Z,9.00
2022-07-25T15:27:02.172Z,9.20
2022-07-25T15:31:47.627Z,7.20
2022-07-25T15:36:32.983Z,5.85
2022-07-25T15:41:18.325Z,9.05
2022-07-25T15:46:05.993Z,7.85
2022-07-25T15:50:53.493Z,10.48
2022-07-25T15:55:40.419Z,10.63
2022-07-25T16:00:29.694Z,9.35
2022-07-25T16:05:18.104Z,12.88
2022-07-25T16:10:03.497Z,12.52
2022-07-25T16:14:48.669Z,10.18
2022-07-25T16:19:34.055Z,11.60
2022-07-25T16:24:21.727Z,9.38
2022-07-25T16:29:07.961Z,11.75
2022-07-25T16:33:53.259Z,11.68
2022-07-25T16:38:38.689Z,11.68
2022-07-25T16:43:26.819Z,9.93
2022-07-25T16:48:12.279Z,7.72
2022-07-25T16:53:01.370Z,12.77
2022-07-25T16:57:46.748Z,10.27
2022-07-25T17:02:35.805Z,8.52
2022-07-25T17:07:21.118Z,8.52
2022-07-25T17:12:06.515Z,8.38
2022-07-25T17:16:53.446Z,6.30
2022-07-25T17:21:41.114Z,11.23
2022-07-25T17:26:26.630Z,11.90
2022-07-25T17:31:11.788Z,9.50
2022-07-25T17:35:59.002Z,13.10
2022-07-25T17:40:46.662Z,10.27
2022-07-25T17:45:32.246Z,12.43
2022-07-25T17:50:17.353Z,10.38
2022-07-25T17:55:02.741Z,16.02
2022-07-25T17:59:50.597Z,17.15
2022-07-25T18:04:35.938Z,12.63
2022-07-25T18:09:22.829Z,11.45
2022-07-25T18:14:08.890Z,10.93
2022-07-25T18:18:57.090Z,11.77
2022-07-25T18:23:42.479Z,13.48
2022-07-25T18:28:28.974Z,9.40
2022-07-25T18:33:15.222Z,10.63
2022-07-25T18:38:03.824Z,9.77
2022-07-25T18:42:49.270Z,11.32
2022-07-25T18:47:35.195Z,9.75
2022-07-25T18:52:20.517Z,11.32
2022-07-25T18:57:08.838Z,9.40
2022-07-25T19:01:54.979Z,9.35
2022-07-25T19:06:40.696Z,10.57
2022-07-25T19:11:26.288Z,12.13
2022-07-25T19:16:14.445Z,13.82
2022-07-25T19:21:00.478Z,11.85
2022-07-25T19:25:45.653Z,12.15
2022-07-25T19:30:31.172Z,13.07
2022-07-25T19:35:25.643Z,11.73
2022-07-25T19:40:13.183Z,10.07
2022-07-25T19:44:58.427Z,10.90
2022-07-25T19:49:44.083Z,10.57
2022-07-25T19:54:31.889Z,12.32
2022-07-25T19:59:17.229Z,9.48
2022-07-25T20:04:03.297Z,10.20
2022-07-25T20:08:48.724Z,14.80
2022-07-25T20:13:36.450Z,10.77
2022-07-25T20:18:21.776Z,12.13
2022-07-25T20:23:07.109Z,16.15
2022-07-25T20:27:52.518Z,14.07
2022-07-25T20:32:40.708Z,8.13
2022-07-25T20:37:26.154Z,8.57
2022-07-25T20:42:11.311Z,9.82
2022-07-25T20:46:56.630Z,9.52
2022-07-25T20:51:44.806Z,8.77
2022-07-25T20:56:30.202Z,11.40
2022-07-25T21:01:15.543Z,11.85
2022-07-25T21:06:01.643Z,9.38
2022-07-25T21:10:49.382Z,12.82
2022-07-25T21:15:35.355Z,13.65
2022-07-25T21:20:20.946Z,13.88
2022-07-25T21:25:07.282Z,9.10
2022-07-25T21:29:54.975Z,14.13
2022-07-25T21:34:40.455Z,11.82
2022-07-25T21:39:25.654Z,10.10
2022-07-25T21:44:10.988Z,9.98
2022-07-25T21:49:11.446Z,13.93
2022-07-25T21:53:57.971Z,9.15
2022-07-25T21:58:42.999Z,14.65
2022-07-25T22:03:28.498Z,11.27
2022-07-25T22:08:16.484Z,14.40
2022-07-25T22:13:01.598Z,15.20
2022-07-25T22:17:49.710Z,11.07
2022-07-25T22:22:35.597Z,10.80
2022-07-25T22:27:23.956Z,10.05
2022-07-25T22:32:09.232Z,13.95
2022-07-25T22:36:54.621Z,8.50
2022-07-25T22:41:39.758Z,15.18
2022-07-25T22:46:27.750Z,13.02
2022-07-25T22:51:13.073Z,10.32
2022-07-25T22:55:58.388Z,11.07
2022-07-25T23:00:43.516Z,12.70
2022-07-25T23:05:31.766Z,11.77
2022-07-25T23:10:17.057Z,15.98
2022-07-25T23:15:02.644Z,14.43
2022-07-25T23:19:48.438Z,12.63
2022-07-25T23:24:38.045Z,14.82
2022-07-25T23:29:23.321Z,11.50
2022-07-25T23:34:09.631Z,12.05
2022-07-25T23:38:54.662Z,13.25
2022-07-25T23:43:56.967Z,10.65
2022-07-25T23:48:44.988Z,11.45
2022-07-25T23:53:30.062Z,9.70
2022-07-25T23:58:15.452Z,11.20
